16NY weather

Public forecast

Using degrees Fahrenheit for public forecast. Weather courtesy of forecast.io.

Closest aviation weather report (METAR) to Station 241 Heliport

Closest report is Syracuse Hancock International Airport, 10.3 nm (19.1 km) N. Retrieved 2020/08/11 16:54 UTC (2 hours ago):

KSYR 111654Z 23016G23KT 10SM FEW065 SCT150 SCT250 33/18 A2986 RMK AO2 SLP104 T03280178

Closest aviation forecast (TAF) to Station 241 Heliport

Closest forecast is Syracuse Hancock International Airport, 10.3 nm (19.1 km) N. Retrieved 2020/08/11 18:34 UTC (16 minutes ago):

TAF KSYR 111731Z 1118/1218 21011G22KT P6SM SCT050 TEMPO 1120/1124 23015G25KT 2SM TSRA OVC030CB FM120100 25003KT P6SM BKN100